This is the latest recevied weather packets stored in our database for station/object DN9EM-2. If no packets are shown the sender has not sent any weather packets the latest 1 day(s).
| Time | Temp. | Humidity | Pressure | Rain* | Wind** | Luminosity | Snow |
|---|---|---|---|---|---|---|---|
| 1778058056 | 12.22° C | 52% | 1010.4 hPa | 0 mm | - | - | - |
| 1778057447 | 12.22° C | 52% | 1010.2 hPa | 0 mm | - | - | - |
| 1778056845 | 11.67° C | 52% | 1010.3 hPa | 0 mm | - | - | - |
| 1778056236 | 11.67° C | 53% | 1010.2 hPa | 0 mm | - | - | - |
| 1778055633 | 11.67° C | 53% | 1010.2 hPa | 0 mm | - | - | - |
| 1778055025 | 11.67° C | 55% | 1010.1 hPa | 0 mm | - | - | - |
| 1778053272 | 11.11° C | 56% | 1010 hPa | 0 mm | - | - | - |
| 1778052669 | 10.56° C | 55% | 1010 hPa | 0 mm | - | - | - |
| 1778050856 | 10° C | 59% | 1009.8 hPa | 0 mm | - | - | - |
| 1778050248 | 10° C | 60% | 1009.6 hPa | 0 mm | - | - | - |
| 1778049037 | 10° C | 61% | 1009.8 hPa | 0 mm | - | - | - |
| 1778047832 | 9.44° C | 62% | 1009.5 hPa | 0 mm | - | - | - |
| 1778044868 | 8.89° C | 66% | 1009.3 hPa | 0 mm | - | - | - |
| 1778044260 | 8.89° C | 69% | 1009.4 hPa | 0 mm | - | - | - |
| 1778042446 | 7.78° C | 79% | 1009.3 hPa | 0 mm | - | - | - |
| 1778041844 | 7.22° C | 82% | 1009.3 hPa | 0 mm | - | - | - |
| 1778041236 | 7.22° C | 83% | 1009.4 hPa | 0 mm | - | - | - |
| 1778040634 | 7.22° C | 83% | 1009.3 hPa | 0 mm | - | - | - |
| 1778038820 | 6.67° C | 84% | 1009.3 hPa | 0 mm | - | - | - |
| 1778037669 | 7.22° C | 86% | 1009.3 hPa | 0 mm | - | - | - |
| 1778037060 | 7.22° C | 86% | 1009.4 hPa | 0 mm | - | - | - |
| 1778036457 | 7.22° C | 86% | 1009.5 hPa | 0 mm | - | - | - |
| 1778035849 | 7.22° C | 85% | 1009.6 hPa | 0 mm | - | - | - |
| 1778035246 | 6.67° C | 86% | 1009.6 hPa | 0 mm | - | - | - |
| 1778034644 | 6.67° C | 86% | 1009.8 hPa | 0 mm | - | - | - |
* Rain latest hour (hover to see other rain measurements)
** Current wind speed in m/s (hover to see current wind gust speed)